createdAt,value
2018-08-24T00:02:06.847Z,9.33
2018-08-24T00:04:35.811Z,11.57
2018-08-24T00:07:04.811Z,11.70
2018-08-24T00:09:33.696Z,9.90
2018-08-24T00:12:02.561Z,8.97
2018-08-24T00:14:31.484Z,10.30
2018-08-24T00:17:00.393Z,9.60
2018-08-24T00:19:29.481Z,11.30
2018-08-24T00:21:58.310Z,8.97
2018-08-24T00:24:27.174Z,9.77
2018-08-24T00:26:56.101Z,10.17
2018-08-24T00:29:25.003Z,11.60
2018-08-24T00:31:53.912Z,10.60
2018-08-24T00:34:22.931Z,11.50
2018-08-24T00:36:51.803Z,12.43
2018-08-24T00:39:20.764Z,9.00
2018-08-24T00:41:49.617Z,12.37
2018-08-24T00:44:18.525Z,10.07
2018-08-24T00:46:47.454Z,9.80
2018-08-24T00:49:16.357Z,11.50
2018-08-24T00:51:45.212Z,8.50
2018-08-24T00:54:14.154Z,12.93
2018-08-24T00:56:43.027Z,11.03
2018-08-24T00:59:11.867Z,9.77
2018-08-24T01:01:40.742Z,10.65
2018-08-24T01:04:09.687Z,9.00
2018-08-24T01:06:40.643Z,9.73
2018-08-24T01:09:08.901Z,10.23
2018-08-24T01:11:55.446Z,9.70
2018-08-24T01:14:24.401Z,11.20
2018-08-24T01:17:10.914Z,9.67
2018-08-24T01:19:43.564Z,10.78
2018-08-24T01:22:12.721Z,10.13
2018-08-24T01:24:41.610Z,11.20
2018-08-24T01:27:10.789Z,9.77
2018-08-24T01:29:40.868Z,10.07
2018-08-24T01:32:12.286Z,9.70
2018-08-24T01:34:41.095Z,10.00
2018-08-24T01:37:09.988Z,9.57
2018-08-24T01:39:38.868Z,10.63
2018-08-24T01:42:07.734Z,11.47
2018-08-24T01:44:36.604Z,10.20
2018-08-24T01:47:05.599Z,13.38
2018-08-24T01:49:34.521Z,12.10
2018-08-24T01:52:03.329Z,14.20
2018-08-24T01:54:32.216Z,13.30
2018-08-24T01:57:01.159Z,12.93
2018-08-24T01:59:30.087Z,13.43
2018-08-24T02:01:59.013Z,13.10
2018-08-24T02:04:27.876Z,13.23
2018-08-24T02:06:56.818Z,14.43
2018-08-24T02:09:25.713Z,12.90
2018-08-24T02:11:54.578Z,16.33
2018-08-24T02:14:41.941Z,16.47
2018-08-24T02:17:28.653Z,11.77
2018-08-24T02:20:15.394Z,20.27
2018-08-24T02:22:44.302Z,16.03
2018-08-24T02:25:13.226Z,16.67
2018-08-24T02:27:42.114Z,15.93
2018-08-24T02:30:11.008Z,19.83
2018-08-24T02:32:39.848Z,19.73
2018-08-24T02:35:08.807Z,24.13
2018-08-24T02:37:37.724Z,21.10
2018-08-24T02:40:06.788Z,24.30
2018-08-24T02:42:35.681Z,26.40
2018-08-24T02:45:04.691Z,27.15
2018-08-24T02:47:33.617Z,24.97
2018-08-24T02:50:02.434Z,24.33
2018-08-24T02:52:31.363Z,23.70
2018-08-24T02:55:00.325Z,26.87
2018-08-24T02:57:29.155Z,25.23
2018-08-24T02:59:58.390Z,24.07
2018-08-24T03:02:27.605Z,27.57
2018-08-24T03:04:56.552Z,27.20
2018-08-24T03:07:25.914Z,33.02
2018-08-24T03:09:54.909Z,28.37
2018-08-24T03:12:23.779Z,29.63
2018-08-24T03:14:52.646Z,31.47
2018-08-24T03:17:38.896Z,32.43
2018-08-24T03:20:07.802Z,36.43
2018-08-24T03:22:38.209Z,34.63
2018-08-24T03:25:05.571Z,33.80
2018-08-24T03:27:34.519Z,37.23
2018-08-24T03:30:03.595Z,43.92
2018-08-24T03:32:32.468Z,34.67
2018-08-24T03:35:01.345Z,36.37
2018-08-24T03:37:30.295Z,38.90
2018-08-24T03:39:59.116Z,36.30
2018-08-24T03:42:27.970Z,40.33
2018-08-24T03:44:56.858Z,36.10
2018-08-24T03:47:25.789Z,39.90
2018-08-24T03:49:56.816Z,40.47
2018-08-24T03:52:23.621Z,46.33
2018-08-24T03:54:52.563Z,45.00
2018-08-24T03:57:21.451Z,43.63
2018-08-24T03:59:50.336Z,50.52
2018-08-24T04:02:19.275Z,46.30
2018-08-24T04:04:48.188Z,41.37
2018-08-24T04:07:17.045Z,40.57
2018-08-24T04:09:46.014Z,44.57
2018-08-24T04:12:14.911Z,45.90
2018-08-24T04:14:43.797Z,44.23
2018-08-24T04:17:30.386Z,46.23
2018-08-24T04:19:59.351Z,44.10
2018-08-24T04:22:28.227Z,45.60
2018-08-24T04:24:57.177Z,44.90
2018-08-24T04:27:26.044Z,47.07
2018-08-24T04:29:55.016Z,47.38
2018-08-24T04:32:23.964Z,40.60
2018-08-24T04:34:52.905Z,42.03
2018-08-24T04:37:21.763Z,47.00
2018-08-24T04:39:50.687Z,44.27
2018-08-24T04:42:19.761Z,42.30
2018-08-24T04:44:51.519Z,42.73
2018-08-24T04:47:17.644Z,42.23
2018-08-24T04:49:46.603Z,38.40
2018-08-24T04:52:15.596Z,36.47
2018-08-24T04:54:44.589Z,42.95
2018-08-24T04:57:13.560Z,33.67
2018-08-24T04:59:42.442Z,33.73
2018-08-24T05:02:11.836Z,26.93
2018-08-24T05:04:40.764Z,29.87
2018-08-24T05:07:09.719Z,28.17
2018-08-24T05:09:38.667Z,29.42
2018-08-24T05:12:07.695Z,24.37
2018-08-24T05:14:36.641Z,27.77
2018-08-24T05:17:05.650Z,28.43
2018-08-24T05:19:34.601Z,24.30
2018-08-24T05:22:06.321Z,23.23
2018-08-24T05:24:35.327Z,27.47
2018-08-24T05:27:04.309Z,23.40
2018-08-24T05:29:33.284Z,28.17
2018-08-24T05:32:02.303Z,24.57
2018-08-24T05:34:31.343Z,25.70
2018-08-24T05:37:00.135Z,24.00
2018-08-24T05:39:29.046Z,21.02
2018-08-24T05:41:57.978Z,21.27
2018-08-24T05:44:26.865Z,18.17
2018-08-24T05:46:55.776Z,21.27
2018-08-24T05:49:24.652Z,18.80
2018-08-24T05:51:53.630Z,15.47
2018-08-24T05:54:22.545Z,16.90
2018-08-24T05:56:51.468Z,16.97
2018-08-24T05:59:23.171Z,15.60
2018-08-24T06:01:52.166Z,21.37
2018-08-24T06:04:20.981Z,13.70
2018-08-24T06:06:49.862Z,17.83
2018-08-24T06:09:18.781Z,15.57
2018-08-24T06:11:47.739Z,18.60
2018-08-24T06:14:16.596Z,14.67
2018-08-24T06:17:02.981Z,15.13
2018-08-24T06:19:33.543Z,15.63
2018-08-24T06:22:02.484Z,16.50
2018-08-24T06:24:31.593Z,12.33
2018-08-24T06:27:00.430Z,15.23
2018-08-24T06:29:29.386Z,14.40
2018-08-24T06:31:58.271Z,12.20
2018-08-24T06:34:27.188Z,13.20
2018-08-24T06:36:56.119Z,10.97
2018-08-24T06:39:25.115Z,12.53
2018-08-24T06:41:54.069Z,10.87
2018-08-24T06:44:27.840Z,14.67
2018-08-24T06:46:55.098Z,10.23
2018-08-24T06:49:24.032Z,12.50
2018-08-24T06:51:53.017Z,8.87
2018-08-24T06:54:21.908Z,9.57
2018-08-24T06:56:50.804Z,13.67
2018-08-24T06:59:19.695Z,15.53
2018-08-24T07:01:48.778Z,12.93
2018-08-24T07:04:17.658Z,14.47
2018-08-24T07:06:46.552Z,12.87
2018-08-24T07:09:15.499Z,16.23
2018-08-24T07:11:44.380Z,13.37
2018-08-24T07:14:13.366Z,13.83
2018-08-24T07:16:42.511Z,12.10
2018-08-24T07:19:13.255Z,13.83
2018-08-24T07:21:40.584Z,10.73
2018-08-24T07:24:09.471Z,11.88
2018-08-24T07:26:38.394Z,13.45
2018-08-24T07:29:07.272Z,11.70
2018-08-24T07:31:36.188Z,12.03
2018-08-24T07:34:05.085Z,8.98
2018-08-24T07:36:34.063Z,13.45
2018-08-24T07:39:03.042Z,7.83
2018-08-24T07:41:32.079Z,13.05
2018-08-24T07:44:00.854Z,11.15
2018-08-24T07:46:33.008Z,9.00
2018-08-24T07:49:01.986Z,7.50
2018-08-24T07:51:31.031Z,9.15
2018-08-24T07:53:59.892Z,8.53
2018-08-24T07:56:29.810Z,7.60
2018-08-24T07:59:02.094Z,7.22
2018-08-24T08:01:29.196Z,5.53
2018-08-24T08:04:08.331Z,6.78
2018-08-24T08:06:37.355Z,7.92
2018-08-24T08:09:07.547Z,5.78
2018-08-24T08:11:40.300Z,6.30
2018-08-24T08:14:09.693Z,6.20
2018-08-24T08:16:38.543Z,4.78
2018-08-24T08:19:07.558Z,7.60
2018-08-24T08:21:36.493Z,6.70
2018-08-24T08:24:05.493Z,6.17
2018-08-24T08:26:34.485Z,6.05
2018-08-24T08:29:03.399Z,7.05
2018-08-24T08:31:32.366Z,5.70
2018-08-24T08:34:01.552Z,6.50
2018-08-24T08:36:32.631Z,4.28
2018-08-24T08:38:59.374Z,5.50
2018-08-24T08:41:28.307Z,5.42
2018-08-24T08:43:57.168Z,4.50
2018-08-24T08:46:26.277Z,6.20
2018-08-24T08:48:55.300Z,4.37
2018-08-24T08:51:24.302Z,4.42
2018-08-24T08:53:53.112Z,4.65
2018-08-24T08:56:22.105Z,7.47
2018-08-24T08:58:51.167Z,4.58
2018-08-24T09:01:20.227Z,6.83
2018-08-24T09:03:49.209Z,6.10
2018-08-24T09:06:20.203Z,6.03
2018-08-24T09:08:47.085Z,3.92
2018-08-24T09:11:16.014Z,6.53
2018-08-24T09:13:44.956Z,5.37
2018-08-24T09:16:13.908Z,6.90
2018-08-24T09:19:00.478Z,5.00
2018-08-24T09:21:47.306Z,3.50
2018-08-24T09:24:34.068Z,4.70
2018-08-24T09:27:21.138Z,6.05
2018-08-24T09:29:50.122Z,4.53
2018-08-24T09:32:19.107Z,4.90
2018-08-24T09:34:47.991Z,6.53
2018-08-24T09:37:35.795Z,4.47
2018-08-24T09:40:05.196Z,5.20
2018-08-24T09:42:34.286Z,5.13
2018-08-24T09:45:03.602Z,5.37
2018-08-24T09:47:50.375Z,5.47
2018-08-24T09:50:36.828Z,5.50
2018-08-24T09:53:23.645Z,4.85
2018-08-24T09:55:52.542Z,6.72
2018-08-24T09:58:21.488Z,5.25
2018-08-24T10:01:12.134Z,4.85
2018-08-24T10:03:58.693Z,6.85
2018-08-24T10:06:45.520Z,3.52
2018-08-24T10:09:15.451Z,5.62
2018-08-24T10:11:44.407Z,4.78
2018-08-24T10:14:15.227Z,3.98
2018-08-24T10:16:44.126Z,3.05
2018-08-24T10:19:14.268Z,2.80
2018-08-24T10:21:43.155Z,4.33
2018-08-24T10:24:12.222Z,4.65
2018-08-24T10:26:41.106Z,5.17
2018-08-24T10:29:10.116Z,6.85
2018-08-24T10:31:38.982Z,4.60
2018-08-24T10:34:07.864Z,6.70
2018-08-24T10:36:36.872Z,4.58
2018-08-24T10:39:11.502Z,5.60
2018-08-24T10:41:41.416Z,3.92
2018-08-24T10:44:10.294Z,5.42
2018-08-24T10:46:39.208Z,4.65
2018-08-24T10:49:08.188Z,5.90
2018-08-24T10:51:37.271Z,4.87
2018-08-24T10:54:06.146Z,3.30
2018-08-24T10:56:35.062Z,3.35
2018-08-24T10:59:04.091Z,3.75
2018-08-24T11:01:33.079Z,5.60
2018-08-24T11:04:07.725Z,4.22
2018-08-24T11:06:36.669Z,2.90
2018-08-24T11:09:11.513Z,3.02
2018-08-24T11:11:40.416Z,7.85
2018-08-24T11:14:11.537Z,6.08
2018-08-24T11:16:40.489Z,3.90
2018-08-24T11:19:09.370Z,3.87
2018-08-24T11:21:40.157Z,4.47
2018-08-24T11:24:10.670Z,4.45
2018-08-24T11:26:39.667Z,3.08
2018-08-24T11:29:08.613Z,4.22
2018-08-24T11:31:37.700Z,7.08
2018-08-24T11:34:07.831Z,4.75
2018-08-24T11:36:36.577Z,3.95
2018-08-24T11:39:09.846Z,4.67
2018-08-24T11:41:38.770Z,4.67
2018-08-24T11:44:07.693Z,5.22
2018-08-24T11:46:36.569Z,7.40
2018-08-24T11:49:05.716Z,3.17
2018-08-24T11:51:34.638Z,3.17
2018-08-24T11:54:03.620Z,4.25
2018-08-24T11:56:32.484Z,4.45
2018-08-24T11:59:01.481Z,3.22
2018-08-24T12:01:30.332Z,4.12
2018-08-24T12:04:00.140Z,5.62
2018-08-24T12:06:29.495Z,5.78
2018-08-24T12:09:01.566Z,4.35
2018-08-24T12:11:43.594Z,4.60
2018-08-24T12:14:17.752Z,3.08
2018-08-24T12:16:58.831Z,5.53
2018-08-24T12:19:27.859Z,4.75
2018-08-24T12:21:57.185Z,4.10
2018-08-24T12:24:26.128Z,4.33
2018-08-24T12:26:54.943Z,5.35
2018-08-24T12:29:23.792Z,6.03
2018-08-24T12:31:52.750Z,7.12
2018-08-24T12:34:21.730Z,6.95
2018-08-24T12:36:50.630Z,5.40
2018-08-24T12:39:19.672Z,4.03
2018-08-24T12:41:48.721Z,9.08
2018-08-24T12:44:18.242Z,7.33
2018-08-24T12:46:47.104Z,5.70
2018-08-24T12:49:16.199Z,8.83
2018-08-24T12:51:46.732Z,6.58
2018-08-24T12:54:14.054Z,5.10
2018-08-24T12:56:43.026Z,5.70
2018-08-24T12:59:11.893Z,4.80
2018-08-24T13:01:40.925Z,5.25
2018-08-24T13:04:10.265Z,8.23
2018-08-24T13:06:44.065Z,8.38
2018-08-24T13:09:18.549Z,4.12
2018-08-24T13:11:47.535Z,5.35
2018-08-24T13:14:16.349Z,4.08
2018-08-24T13:16:45.630Z,4.10
2018-08-24T13:19:14.559Z,5.03
2018-08-24T13:21:48.080Z,4.12
2018-08-24T13:24:16.963Z,5.75
2018-08-24T13:26:48.967Z,4.90
2018-08-24T13:29:20.952Z,2.40
2018-08-24T13:31:53.137Z,4.55
2018-08-24T13:34:25.629Z,3.47
2018-08-24T13:36:54.582Z,4.83
2018-08-24T13:39:23.673Z,4.40
2018-08-24T13:41:52.665Z,5.37
2018-08-24T13:44:21.651Z,4.65
2018-08-24T13:46:50.645Z,5.33
2018-08-24T13:49:19.547Z,4.33
2018-08-24T13:51:48.845Z,4.97
2018-08-24T13:54:44.323Z,5.65
2018-08-24T13:57:16.209Z,4.67
2018-08-24T13:59:47.909Z,3.65
2018-08-24T14:02:17.238Z,5.00
2018-08-24T14:04:46.195Z,3.92
2018-08-24T14:07:15.573Z,3.35
2018-08-24T14:09:44.611Z,4.05
2018-08-24T14:12:16.299Z,2.70
2018-08-24T14:14:45.152Z,3.62
2018-08-24T14:17:14.102Z,3.97
2018-08-24T14:19:53.229Z,4.10
2018-08-24T14:22:34.175Z,5.33
2018-08-24T14:25:03.447Z,3.33
2018-08-24T14:27:41.327Z,4.35
2018-08-24T14:30:13.561Z,3.98
2018-08-24T14:32:40.141Z,4.90
2018-08-24T14:35:19.046Z,4.03
2018-08-24T14:37:48.462Z,4.60
2018-08-24T14:40:17.573Z,4.25
2018-08-24T14:42:46.592Z,2.90
2018-08-24T14:45:15.488Z,3.47
2018-08-24T14:47:44.477Z,3.83
2018-08-24T14:50:13.536Z,4.28
2018-08-24T14:52:42.370Z,4.25
2018-08-24T14:55:13.933Z,3.75
2018-08-24T14:57:45.927Z,3.67
2018-08-24T15:00:18.093Z,3.77
2018-08-24T15:02:52.992Z,3.93
2018-08-24T15:05:22.016Z,2.95
2018-08-24T15:07:52.996Z,3.90
2018-08-24T15:10:24.739Z,4.28
2018-08-24T15:12:53.607Z,4.55
2018-08-24T15:15:24.317Z,5.33
2018-08-24T15:17:55.432Z,5.10
2018-08-24T15:20:22.676Z,3.27
2018-08-24T15:22:51.569Z,2.33
2018-08-24T15:25:22.717Z,2.17
2018-08-24T15:27:49.571Z,4.62
2018-08-24T15:30:18.646Z,3.85
2018-08-24T15:32:47.704Z,5.65
2018-08-24T15:35:19.767Z,4.53
2018-08-24T15:37:48.730Z,3.40
2018-08-24T15:40:17.689Z,3.92
2018-08-24T15:42:46.495Z,2.93
2018-08-24T15:45:18.155Z,3.55
2018-08-24T15:47:47.079Z,4.50
2018-08-24T15:50:15.969Z,3.83
2018-08-24T15:52:45.109Z,3.10
2018-08-24T15:55:14.074Z,18.85
2018-08-24T15:57:43.040Z,4.08
2018-08-24T16:00:11.967Z,1439.80
2018-08-24T16:02:42.901Z,1999.90
2018-08-24T16:05:11.935Z,1930.00
2018-08-24T16:07:43.686Z,146.80
2018-08-24T16:10:12.681Z,559.03
2018-08-24T16:12:43.916Z,188.07
2018-08-24T16:15:12.900Z,496.63
2018-08-24T16:17:41.994Z,11.33
2018-08-24T16:20:10.997Z,15.70
2018-08-24T16:22:39.998Z,67.83
2018-08-24T16:25:08.881Z,9.93
2018-08-24T16:27:40.614Z,18.90
2018-08-24T16:30:09.555Z,23.67
2018-08-24T16:32:44.937Z,9.50
2018-08-24T16:35:12.502Z,122.77
2018-08-24T16:37:44.079Z,81.03
2018-08-24T16:40:13.031Z,6.40
2018-08-24T16:42:41.904Z,7.72
2018-08-24T16:45:11.051Z,23.40
2018-08-24T16:47:39.938Z,1097.73
2018-08-24T16:50:09.141Z,146.57
2018-08-24T16:52:41.260Z,108.70
2018-08-24T16:55:15.750Z,93.37
2018-08-24T16:57:47.796Z,330.27
2018-08-24T17:00:19.489Z,1999.90
2018-08-24T17:02:48.427Z,1545.77
2018-08-24T17:05:19.428Z,1454.97
2018-08-24T17:07:49.325Z,198.77
2018-08-24T17:10:18.304Z,116.87
2018-08-24T17:12:47.179Z,118.73
2018-08-24T17:15:16.528Z,111.33
2018-08-24T17:17:47.699Z,34.27
2018-08-24T17:20:16.664Z,256.00
2018-08-24T17:22:45.529Z,22.77
2018-08-24T17:25:22.984Z,33.83
2018-08-24T17:27:49.545Z,11.77
2018-08-24T17:30:18.473Z,14.00
2018-08-24T17:32:47.415Z,352.40
2018-08-24T17:35:20.425Z,85.80
2018-08-24T17:37:49.378Z,13.07
2018-08-24T17:40:18.264Z,77.97
2018-08-24T17:42:50.952Z,5.87
2018-08-24T17:45:19.910Z,16.90
2018-08-24T17:50:31.077Z,36.90
2018-08-24T17:53:00.815Z,19.70
2018-08-24T17:55:29.958Z,71.97
2018-08-24T17:57:59.309Z,29.70
2018-08-24T18:00:31.901Z,176.33
2018-08-24T18:03:01.212Z,14.97
2018-08-24T18:05:30.141Z,26.37
2018-08-24T18:07:59.299Z,24.63
2018-08-24T18:10:28.236Z,5.63
2018-08-24T18:12:57.211Z,6.67
2018-08-24T18:15:26.115Z,3.83
2018-08-24T18:17:55.217Z,4.60
2018-08-24T18:20:26.630Z,4.80
2018-08-24T18:22:58.143Z,5.13
2018-08-24T18:25:25.017Z,6.00
2018-08-24T18:28:00.982Z,3.03
2018-08-24T18:30:30.040Z,16.27
2018-08-24T18:32:59.063Z,4.43
2018-08-24T18:35:28.502Z,7.87
2018-08-24T18:38:01.711Z,3.90
2018-08-24T18:40:30.718Z,6.63
2018-08-24T18:43:02.423Z,3.77
2018-08-24T18:45:33.868Z,4.33
2018-08-24T18:48:16.789Z,2.97
2018-08-24T18:50:46.434Z,4.57
2018-08-24T18:53:15.431Z,3.53
2018-08-24T18:55:46.191Z,3.40
2018-08-24T18:58:19.996Z,5.23
2018-08-24T19:00:54.858Z,2.43
2018-08-24T19:03:23.857Z,4.23
2018-08-24T19:05:56.559Z,3.13
2018-08-24T19:08:31.927Z,2.43
2018-08-24T19:11:19.886Z,3.10
2018-08-24T19:13:51.948Z,4.50
2018-08-24T19:16:26.754Z,8.90
2018-08-24T19:19:10.750Z,17.40
2018-08-24T19:21:52.542Z,18.57
2018-08-24T19:24:23.073Z,4.47
2018-08-24T19:26:49.078Z,3.33
2018-08-24T19:29:36.152Z,3.30
2018-08-24T19:32:05.177Z,4.37
2018-08-24T19:34:38.813Z,2.83
2018-08-24T19:37:07.691Z,4.50
2018-08-24T19:39:39.107Z,3.27
2018-08-24T19:42:23.595Z,2.37
2018-08-24T19:44:52.684Z,2.97
2018-08-24T19:47:41.140Z,3.40
2018-08-24T19:50:12.478Z,3.47
2018-08-24T19:52:41.463Z,3.90
2018-08-24T19:55:10.382Z,4.77
2018-08-24T19:57:57.118Z,3.77
2018-08-24T20:00:26.083Z,1.90
2018-08-24T20:02:54.901Z,5.90
2018-08-24T20:05:23.839Z,3.27
2018-08-24T20:08:10.328Z,38.70
2018-08-24T20:10:39.327Z,14.40
2018-08-24T20:13:10.517Z,29.77
2018-08-24T20:15:59.430Z,4.00
2018-08-24T20:18:28.219Z,2.80
2018-08-24T20:20:57.381Z,3.90
2018-08-24T20:23:37.164Z,3.20
2018-08-24T20:26:05.515Z,3.92
2018-08-24T20:28:34.350Z,26.77
2018-08-24T20:31:05.261Z,25.43
2018-08-24T20:33:32.555Z,3.97
2018-08-24T20:36:17.163Z,3.37
2018-08-24T20:38:45.724Z,2.50
2018-08-24T20:41:16.963Z,8.47
2018-08-24T20:43:49.230Z,2.70
2018-08-24T20:46:18.106Z,3.57
2018-08-24T20:48:49.736Z,5.40
2018-08-24T20:51:21.956Z,5.33
2018-08-24T20:53:54.609Z,2.27
2018-08-24T20:56:23.522Z,5.27
2018-08-24T20:58:54.596Z,3.20
2018-08-24T21:01:23.641Z,2.13
2018-08-24T21:03:54.593Z,5.70
2018-08-24T21:06:26.022Z,2.30
2018-08-24T21:08:54.991Z,2.23
2018-08-24T21:11:24.091Z,3.30
2018-08-24T21:13:53.080Z,3.23
2018-08-24T21:16:21.967Z,3.50
2018-08-24T21:18:50.860Z,6.67
2018-08-24T21:21:19.818Z,3.17
2018-08-24T21:23:48.799Z,4.27
2018-08-24T21:26:23.922Z,77.27
2018-08-24T21:28:53.054Z,44.07
2018-08-24T21:31:21.901Z,27.07
2018-08-24T21:33:50.801Z,5.27
2018-08-24T21:36:19.655Z,4.47
2018-08-24T21:38:51.586Z,4.03
2018-08-24T21:41:20.581Z,3.73
2018-08-24T21:43:49.540Z,2.27
2018-08-24T21:46:18.495Z,2.30
2018-08-24T21:48:47.390Z,2.83
2018-08-24T21:51:16.458Z,5.47
2018-08-24T21:53:45.980Z,2.57
2018-08-24T21:56:15.761Z,12.97
2018-08-24T21:58:47.321Z,6.43
2018-08-24T22:01:14.906Z,3.10
2018-08-24T22:03:48.644Z,3.17
2018-08-24T22:06:17.782Z,5.03
2018-08-24T22:08:46.702Z,4.97
2018-08-24T22:11:19.128Z,5.20
2018-08-24T22:13:48.233Z,4.50
2018-08-24T22:16:17.367Z,6.83
2018-08-24T22:18:46.690Z,8.27
2018-08-24T22:21:15.583Z,6.07
2018-08-24T22:23:44.806Z,6.60
2018-08-24T22:26:13.794Z,8.77
2018-08-24T22:28:42.769Z,6.55
2018-08-24T22:31:11.732Z,5.13
2018-08-24T22:33:40.610Z,62.17
2018-08-24T22:36:09.483Z,10.13
2018-08-24T22:38:38.370Z,4.67
2018-08-24T22:41:09.202Z,6.83
2018-08-24T22:43:37.102Z,7.17
2018-08-24T22:46:06.302Z,7.33
2018-08-24T22:48:35.375Z,7.60
2018-08-24T22:51:04.918Z,6.33
2018-08-24T22:53:33.944Z,5.43
2018-08-24T22:56:02.801Z,6.67
2018-08-24T22:58:31.760Z,5.30
2018-08-24T23:01:00.797Z,8.00
2018-08-24T23:03:29.649Z,16.47
2018-08-24T23:05:58.524Z,7.33
2018-08-24T23:08:27.538Z,5.00
2018-08-24T23:10:56.376Z,43.73
2018-08-24T23:13:25.275Z,62.17
2018-08-24T23:15:54.220Z,7.93
2018-08-24T23:18:23.083Z,2.97
2018-08-24T23:20:51.985Z,2.27
2018-08-24T23:23:20.946Z,5.07
2018-08-24T23:25:49.927Z,3.13
2018-08-24T23:28:21.418Z,4.08
2018-08-24T23:30:50.315Z,4.03
2018-08-24T23:33:19.181Z,5.20
2018-08-24T23:35:48.116Z,3.17
2018-08-24T23:38:17.213Z,2.63
2018-08-24T23:40:46.158Z,2.73
2018-08-24T23:43:22.290Z,6.60
2018-08-24T23:45:49.561Z,6.40
2018-08-24T23:48:20.763Z,2.80
2018-08-24T23:50:49.780Z,2.77
2018-08-24T23:53:23.000Z,4.70
2018-08-24T23:55:51.900Z,3.13
2018-08-24T23:58:20.877Z,3.98
